createdAt,value
2019-06-27T00:06:44.822Z,9.17
2019-06-27T00:16:48.011Z,10.27
2019-06-27T00:26:57.287Z,10.73
2019-06-27T00:36:57.988Z,11.10
2019-06-27T00:47:00.539Z,10.17
2019-06-27T00:57:13.386Z,10.33
2019-06-27T01:07:10.458Z,10.13
2019-06-27T01:17:13.257Z,10.83
2019-06-27T01:27:29.503Z,10.97
2019-06-27T01:37:26.990Z,10.97
2019-06-27T01:47:29.541Z,10.60
2019-06-27T01:57:46.011Z,10.17
2019-06-27T02:07:39.748Z,10.20
2019-06-27T02:17:43.836Z,10.37
2019-06-27T02:28:02.137Z,10.93
2019-06-27T02:37:50.966Z,11.07
2019-06-27T02:47:53.622Z,12.47
2019-06-27T02:57:57.277Z,12.73
2019-06-27T03:07:59.828Z,14.30
2019-06-27T03:18:04.418Z,13.53
2019-06-27T03:28:06.971Z,14.97
2019-06-27T03:38:10.883Z,13.40
2019-06-27T03:48:13.523Z,12.47
2019-06-27T03:58:16.849Z,11.70
2019-06-27T04:08:23.107Z,10.80
2019-06-27T04:18:26.988Z,10.77
2019-06-27T04:28:29.873Z,10.80
2019-06-27T04:38:33.664Z,10.73
2019-06-27T04:48:36.207Z,10.30
2019-06-27T04:58:39.620Z,9.57
2019-06-27T05:08:43.546Z,9.37
2019-06-27T05:18:48.440Z,9.03
2019-06-27T05:28:52.342Z,8.90
2019-06-27T05:38:56.160Z,7.93
2019-06-27T05:48:58.700Z,7.43
2019-06-27T05:59:03.221Z,8.20
2019-06-27T06:09:07.206Z,7.50
2019-06-27T06:19:10.610Z,7.70
2019-06-27T06:29:16.648Z,5.30
2019-06-27T06:39:20.008Z,8.20
2019-06-27T06:49:22.533Z,7.13
2019-06-27T06:59:25.148Z,6.90
2019-06-27T07:09:27.668Z,6.03
2019-06-27T07:19:31.266Z,4.97
2019-06-27T07:29:34.930Z,6.67
2019-06-27T07:39:37.495Z,7.43
2019-06-27T07:49:40.962Z,6.53
2019-06-27T07:59:46.930Z,6.00
2019-06-27T08:09:50.750Z,5.70
2019-06-27T08:19:54.390Z,5.90
2019-06-27T08:29:58.835Z,5.40
2019-06-27T08:40:02.390Z,6.60
2019-06-27T08:50:06.244Z,5.87
2019-06-27T09:00:13.553Z,5.60
2019-06-27T09:10:16.343Z,6.40
2019-06-27T09:20:19.899Z,6.67
2019-06-27T09:30:23.138Z,4.42
2019-06-27T09:40:26.127Z,3.65
2019-06-27T09:50:28.788Z,3.75
2019-06-27T10:00:34.512Z,4.10
2019-06-27T10:10:37.487Z,4.17
2019-06-27T10:20:41.451Z,4.20
2019-06-27T10:30:49.075Z,3.67
2019-06-27T10:40:51.990Z,3.30
2019-06-27T10:50:57.552Z,3.23
2019-06-27T11:01:00.143Z,4.60
2019-06-27T11:11:02.780Z,3.35
2019-06-27T11:21:05.378Z,3.70
2019-06-27T11:31:07.912Z,4.20
2019-06-27T11:41:11.249Z,3.50
2019-06-27T11:51:13.802Z,3.80
2019-06-27T12:01:17.226Z,4.07
2019-06-27T12:11:20.303Z,4.17
2019-06-27T12:21:23.077Z,4.43
2019-06-27T12:31:25.600Z,4.80
2019-06-27T12:41:30.496Z,5.30
2019-06-27T12:51:33.043Z,5.40
2019-06-27T13:01:37.410Z,5.17
2019-06-27T13:11:40.789Z,4.53
2019-06-27T13:21:43.394Z,4.80
2019-06-27T13:31:45.942Z,5.10
2019-06-27T13:41:50.242Z,4.27
2019-06-27T13:51:53.545Z,4.43
2019-06-27T14:01:56.872Z,3.97
2019-06-27T14:12:01.978Z,5.03
2019-06-27T14:22:06.253Z,4.47
2019-06-27T14:32:09.035Z,4.37
2019-06-27T14:42:14.364Z,4.47
2019-06-27T14:52:17.262Z,4.43
2019-06-27T15:02:20.803Z,4.97
2019-06-27T15:12:24.521Z,4.70
2019-06-27T15:22:27.071Z,4.80
2019-06-27T15:32:29.920Z,5.00
2019-06-27T15:42:33.250Z,4.93
2019-06-27T15:52:35.793Z,5.40
2019-06-27T16:02:39.321Z,5.87
2019-06-27T16:12:42.166Z,6.03
2019-06-27T16:22:45.477Z,6.70
2019-06-27T16:32:48.000Z,6.20
2019-06-27T16:42:51.988Z,6.73
2019-06-27T16:52:55.475Z,6.10
2019-06-27T17:02:59.138Z,6.43
2019-06-27T17:13:01.797Z,6.23
2019-06-27T17:23:05.971Z,6.57
2019-06-27T17:33:08.510Z,6.47
2019-06-27T17:43:14.939Z,12.17
2019-06-27T17:53:19.468Z,7.13
2019-06-27T18:03:23.777Z,6.30
2019-06-27T18:13:26.935Z,9.83
2019-06-27T18:23:31.067Z,8.23
2019-06-27T18:33:34.461Z,7.47
2019-06-27T18:43:38.467Z,8.07
2019-06-27T18:53:41.792Z,16.03
2019-06-27T19:03:45.477Z,12.90
2019-06-27T19:13:48.811Z,16.00
2019-06-27T19:23:58.414Z,8.10
2019-06-27T19:34:00.991Z,7.70
2019-06-27T19:44:04.591Z,7.87
2019-06-27T19:54:07.118Z,8.07
2019-06-27T20:04:11.615Z,8.90
2019-06-27T20:14:14.153Z,7.83
2019-06-27T20:24:17.254Z,8.00
2019-06-27T20:34:21.099Z,7.77
2019-06-27T20:44:25.854Z,7.77
2019-06-27T20:54:29.519Z,8.07
2019-06-27T21:04:32.969Z,9.50
2019-06-27T21:14:36.187Z,10.93
2019-06-27T21:24:38.757Z,10.73
2019-06-27T21:34:41.658Z,12.77
2019-06-27T21:44:46.378Z,12.63
2019-06-27T21:54:48.915Z,12.03
2019-06-27T22:04:51.493Z,12.40
2019-06-27T22:14:54.852Z,12.37
2019-06-27T22:24:59.620Z,12.63
2019-06-27T22:35:03.385Z,11.67
2019-06-27T22:45:13.853Z,12.00
2019-06-27T22:55:19.685Z,10.77
2019-06-27T23:05:23.056Z,11.27
2019-06-27T23:15:25.770Z,10.97
2019-06-27T23:25:30.691Z,12.97
2019-06-27T23:35:34.072Z,11.20
2019-06-27T23:45:37.373Z,12.57
2019-06-27T23:55:39.954Z,12.63
